Pinedale, WY

6:38 PM MDT on October 17, 2017 (GMT -0600)
Wenz

Weather History for KPNA - August, 2013

Change the Weather History Date:

Sunday, August 4, 2013

  Actual Average (KBPI) Record (KBPI)
Temperature  
Mean Temperature 60 °F -  
Max Temperature 82 °F 79 °F 93 °F (1983)
Min Temperature 37 °F 41 °F 25 °F (2016)
Degree Days  
Heating Degree Days 6    
Growing Degree Days 10 (Base 50)    
Moisture  
Dew Point 29 °F    
Average Humidity 36    
Maximum Humidity 81    
Minimum Humidity 12    
Precipitation  
Precipitation 0.00 in - - ()
Sea Level Pressure  
Sea Level Pressure 30.26 in    
Wind  
Wind Speed 6 mph (WNW)    
Max Wind Speed 17 mph    
Max Gust Speed 22 mph    
Visibility 10 miles    
Events      
Averages and records for this station are not official NWS values.
T = Trace of Precipitation, MM = Missing Value Source: NWS Daily Summary

Daily Weather History Graph

Daily Weather History Graph

Search for Another Location

Airport or City:

Trip Planner

Search our weather history database for the weather conditions in past years. The results will help you decide how hot, cold, wet, or windy it might be!

Date:

Astronomy

Aug. 04, 2013 Rise Set
Actual Time 6:14 AM MDT 8:35 PM MDT
Civil Twilight 5:42 AM MDT 9:07 PM MDT
Nautical Twilight 5:03 AM MDT 9:46 PM MDT
Astronomical Twilight 4:19 AM MDT 10:30 PM MDT
Moon 4:17 AM MDT (8/4) 7:01 PM MDT (8/4)
Length of Visible Light 15h 25m
Length of Day
14h 21m
Waning Crescent, 4% of the Moon is Illuminated
Aug 4
Waning Crescent
Aug 6
New
Aug 14
First Quarter
Aug 20
Full
Aug 28
Last Quarter

Hourly Weather History & Observations

Time (MDT) Temp. Windchill Dew Point Humidity Pressure Visibility Wind Dir Wind Speed Gust Speed Precip Events Conditions
12:15 AM 50.0 °F - 32.0 °F 50% 30.27 in 10.0 mi West 6.9 mph - N/A   Clear
12:35 AM 51.8 °F - 32.0 °F 47% 30.27 in 10.0 mi WNW 6.9 mph - N/A   Clear
12:55 AM 50.0 °F - 35.6 °F 58% 30.27 in 10.0 mi WNW 3.5 mph - N/A   Clear
1:15 AM 50.0 °F - 33.8 °F 54% 30.27 in 10.0 mi NW 4.6 mph - N/A   Clear
1:35 AM 46.4 °F 43.5 °F 33.8 °F 62% 30.27 in 10.0 mi NW 5.8 mph - N/A   Clear
1:55 AM 46.4 °F 44.3 °F 35.6 °F 66% 30.27 in 10.0 mi NW 4.6 mph - N/A   Clear
2:15 AM 46.4 °F - 35.6 °F 66% 30.27 in 10.0 mi Calm Calm - N/A   Clear
2:35 AM 44.6 °F 42.2 °F 35.6 °F 71% 30.28 in 10.0 mi West 4.6 mph - N/A   Clear
2:55 AM 44.6 °F 42.2 °F 35.6 °F 71% 30.28 in 10.0 mi West 4.6 mph - N/A   Clear
3:15 AM 42.8 °F 38.6 °F 33.8 °F 70% 30.28 in 10.0 mi West 6.9 mph - N/A   Clear
3:35 AM 42.8 °F 38.0 °F 33.8 °F 70% 30.28 in 10.0 mi West 8.1 mph - N/A   Clear
3:55 AM 42.8 °F 39.3 °F 33.8 °F 70% 30.27 in 10.0 mi WNW 5.8 mph - N/A   Clear
4:15 AM 42.8 °F 39.3 °F 33.8 °F 70% 30.28 in 10.0 mi WNW 5.8 mph - N/A   Clear
4:35 AM 41.0 °F 39.0 °F 32.0 °F 70% 30.27 in 10.0 mi West 3.5 mph - N/A   Clear
4:55 AM 41.0 °F 36.4 °F 33.8 °F 76% 30.27 in 10.0 mi WNW 6.9 mph - N/A   Clear
5:15 AM 41.0 °F 35.8 °F 33.8 °F 76% 30.27 in 10.0 mi NW 8.1 mph - N/A   Clear
5:35 AM 41.0 °F 39.0 °F 33.8 °F 76% 30.29 in 10.0 mi NW 3.5 mph - N/A   Clear
5:55 AM 41.0 °F 38.0 °F 32.0 °F 70% 30.30 in 10.0 mi SSE 4.6 mph - N/A   Clear
6:15 AM 41.0 °F - 32.0 °F 70% 30.31 in 10.0 mi Calm Calm - N/A   Clear
6:35 AM 37.4 °F 33.8 °F 32.0 °F 81% 30.31 in 10.0 mi West 4.6 mph - N/A   Clear
6:55 AM 41.0 °F 36.4 °F 33.8 °F 76% 30.31 in 10.0 mi West 6.9 mph - N/A   Clear
7:15 AM 42.8 °F 40.1 °F 33.8 °F 70% 30.31 in 10.0 mi West 4.6 mph - N/A   Clear
7:35 AM 44.6 °F 43.1 °F 33.8 °F 66% 30.31 in 10.0 mi WNW 3.5 mph - N/A   Clear
7:55 AM 48.2 °F - 33.8 °F 58% 30.31 in 10.0 mi WNW 5.8 mph - N/A   Clear
8:15 AM 53.6 °F - 32.0 °F 44% 30.31 in 10.0 mi West 4.6 mph - N/A   Clear
8:35 AM 55.4 °F - 32.0 °F 41% 30.31 in 10.0 mi Calm Calm - N/A   Clear
8:55 AM 60.8 °F - 32.0 °F 34% 30.31 in 10.0 mi Calm Calm - N/A   Clear
9:15 AM 66.2 °F - 26.6 °F 23% 30.30 in 10.0 mi ESE 3.5 mph - N/A   Clear
9:35 AM 68.0 °F - 26.6 °F 21% 30.30 in 10.0 mi ESE 5.8 mph - N/A   Clear
9:55 AM 69.8 °F - 24.8 °F 18% 30.30 in 10.0 mi East 4.6 mph - N/A   Clear
10:15 AM 71.6 °F - 24.8 °F 17% 30.30 in 10.0 mi SSE 5.8 mph - N/A   Clear
10:35 AM 73.4 °F - 23.0 °F 15% 30.30 in 10.0 mi SSW 4.6 mph - N/A   Clear
10:55 AM 73.4 °F - 24.8 °F 16% 30.29 in 10.0 mi South 4.6 mph - N/A   Clear
11:15 AM 73.4 °F - 26.6 °F 18% 30.29 in 10.0 mi South 4.6 mph - N/A   Clear
11:35 AM 75.2 °F - 26.6 °F 17% 30.29 in 10.0 mi Calm Calm - N/A   Clear
11:55 AM 77.0 °F - 28.4 °F 17% 30.27 in 10.0 mi ESE 4.6 mph - N/A   Clear
12:15 PM 78.8 °F - 24.8 °F 14% 30.27 in 10.0 mi NNW 8.1 mph - N/A   Clear
12:35 PM 78.8 °F - 24.8 °F 14% 30.27 in 10.0 mi NNW 4.6 mph - N/A   Clear
12:55 PM 78.8 °F - 26.6 °F 15% 30.26 in 10.0 mi North 6.9 mph - N/A   Clear
1:15 PM 80.6 °F - 26.6 °F 14% 30.26 in 10.0 mi North 12.7 mph 16.1 mph N/A   Clear
1:35 PM 78.8 °F - 24.8 °F 14% 30.26 in 10.0 mi West 6.9 mph - N/A   Clear
1:55 PM 80.6 °F - 24.8 °F 13% 30.25 in 10.0 mi North 4.6 mph - N/A   Scattered Clouds
2:15 PM 80.6 °F - 26.6 °F 14% 30.25 in 10.0 mi North 6.9 mph - N/A   Clear
2:35 PM 80.6 °F - 24.8 °F 13% 30.25 in 10.0 mi North 4.6 mph - N/A   Scattered Clouds
2:55 PM 78.8 °F - 26.6 °F 15% 30.24 in 10.0 mi North 10.4 mph 16.1 mph N/A   Scattered Clouds
3:15 PM 82.4 °F - 24.8 °F 12% 30.23 in 10.0 mi WNW 13.8 mph 21.9 mph N/A   Clear
3:35 PM 82.4 °F - 24.8 °F 12% 30.23 in 10.0 mi WNW 12.7 mph 19.6 mph N/A   Clear
3:55 PM 80.6 °F - 23.0 °F 12% 30.23 in 10.0 mi NW 10.4 mph 18.4 mph N/A   Clear
4:15 PM 80.6 °F - 24.8 °F 13% 30.22 in 10.0 mi North 10.4 mph - N/A   Clear
4:35 PM 80.6 °F - 24.8 °F 13% 30.22 in 10.0 mi NW 17.3 mph 20.7 mph N/A   Clear
4:55 PM 80.6 °F - 26.6 °F 14% 30.21 in 10.0 mi WNW 12.7 mph - N/A   Clear
5:15 PM 80.6 °F - 24.8 °F 13% 30.21 in 10.0 mi WNW 16.1 mph 19.6 mph N/A   Clear
5:35 PM 80.6 °F - 24.8 °F 13% 30.22 in 10.0 mi WNW 16.1 mph - N/A   Clear
5:55 PM 80.6 °F - 23.0 °F 12% 30.22 in 10.0 mi WNW 12.7 mph 20.7 mph N/A   Clear
6:15 PM 80.6 °F - 23.0 °F 12% 30.21 in 10.0 mi West 8.1 mph - N/A   Clear
6:35 PM 78.8 °F - 21.2 °F 12% 30.21 in 10.0 mi WNW 16.1 mph 20.7 mph N/A   Clear
6:55 PM 78.8 °F - 23.0 °F 13% 30.21 in 10.0 mi WNW 15.0 mph 21.9 mph N/A   Clear
7:15 PM 77.0 °F - 23.0 °F 13% 30.22 in 10.0 mi WNW 12.7 mph - N/A   Clear
7:35 PM 73.4 °F - 24.8 °F 16% 30.22 in 10.0 mi West 9.2 mph - N/A   Clear
7:55 PM 73.4 °F - 24.8 °F 16% 30.23 in 10.0 mi WNW 6.9 mph - N/A   Clear
8:15 PM 73.4 °F - 26.6 °F 18% 30.23 in 10.0 mi WNW 4.6 mph - N/A   Clear
8:35 PM 69.8 °F - 28.4 °F 21% 30.23 in 10.0 mi West 5.8 mph - N/A   Clear
8:55 PM 68.0 °F - 26.6 °F 21% 30.24 in 10.0 mi WNW 4.6 mph - N/A   Clear
9:15 PM 64.4 °F - 32.0 °F 30% 30.24 in 10.0 mi WNW 4.6 mph - N/A   Clear
9:35 PM 66.2 °F - 30.2 °F 26% 30.25 in 10.0 mi NW 5.8 mph - N/A   Clear
9:55 PM 64.4 °F - 32.0 °F 30% 30.25 in 10.0 mi NNW 5.8 mph - N/A   Clear
10:15 PM 64.4 °F - 32.0 °F 30% 30.26 in 10.0 mi NNW 4.6 mph - N/A   Clear
10:35 PM 60.8 °F - 32.0 °F 34% 30.26 in 10.0 mi Calm Calm - N/A   Clear
10:55 PM 60.8 °F - 30.2 °F 31% 30.26 in 10.0 mi Calm Calm - N/A   Clear
11:15 PM 59.0 °F - 32.0 °F 36% 30.26 in 10.0 mi Calm Calm - N/A   Clear
11:35 PM 57.2 °F - 32.0 °F 38% 30.27 in 10.0 mi West 4.6 mph - N/A   Clear
11:55 PM 55.4 °F - 32.0 °F 41% 30.27 in 10.0 mi WNW 3.5 mph - N/A   Clear